sensor_id;sensor_type;location;lat;lon;timestamp;temperature;humidity
8408;DHT22;4241;48.452;9.216;2022-11-20T00:00:16;5.90;99.90
8408;DHT22;4241;48.452;9.216;2022-11-20T00:02:43;5.80;99.90
8408;DHT22;4241;48.452;9.216;2022-11-20T00:07:37;5.70;99.90
8408;DHT22;4241;48.452;9.216;2022-11-20T00:10:04;5.80;99.90
8408;DHT22;4241;48.452;9.216;2022-11-20T00:12:31;5.80;99.90
8408;DHT22;4241;48.452;9.216;2022-11-20T00:14:59;5.80;99.90
8408;DHT22;4241;48.452;9.216;2022-11-20T00:19:53;5.60;99.90
8408;DHT22;4241;48.452;9.216;2022-11-20T00:22:20;5.70;99.90
8408;DHT22;4241;48.452;9.216;2022-11-20T00:32:10;5.60;99.90
8408;DHT22;4241;48.452;9.216;2022-11-20T00:37:04;5.50;99.90
8408;DHT22;4241;48.452;9.216;2022-11-20T00:39:30;5.40;99.90
8408;DHT22;4241;48.452;9.216;2022-11-20T00:41:57;5.40;99.90
8408;DHT22;4241;48.452;9.216;2022-11-20T00:44:24;5.60;99.90
8408;DHT22;4241;48.452;9.216;2022-11-20T00:49:19;5.70;99.90
8408;DHT22;4241;48.452;9.216;2022-11-20T00:56:40;5.60;99.90
8408;DHT22;4241;48.452;9.216;2022-11-20T00:59:09;5.60;99.90
8408;DHT22;4241;48.452;9.216;2022-11-20T01:01:36;5.60;99.90
8408;DHT22;4241;48.452;9.216;2022-11-20T01:04:04;5.60;99.90
8408;DHT22;4241;48.452;9.216;2022-11-20T01:06:34;5.50;99.90
8408;DHT22;4241;48.452;9.216;2022-11-20T01:09:03;5.50;99.90
8408;DHT22;4241;48.452;9.216;2022-11-20T01:11:32;5.50;99.90
8408;DHT22;4241;48.452;9.216;2022-11-20T01:14:00;5.50;99.90
8408;DHT22;4241;48.452;9.216;2022-11-20T01:16:30;5.50;99.90
8408;DHT22;4241;48.452;9.216;2022-11-20T01:18:59;5.40;99.90
8408;DHT22;4241;48.452;9.216;2022-11-20T01:21:28;5.40;99.90
8408;DHT22;4241;48.452;9.216;2022-11-20T01:23:57;5.40;99.90
8408;DHT22;4241;48.452;9.216;2022-11-20T01:26:26;5.40;99.90
8408;DHT22;4241;48.452;9.216;2022-11-20T01:28:54;5.40;99.90
8408;DHT22;4241;48.452;9.216;2022-11-20T01:31:23;5.30;99.90
8408;DHT22;4241;48.452;9.216;2022-11-20T01:33:53;5.40;99.90
8408;DHT22;4241;48.452;9.216;2022-11-20T01:36:21;5.40;99.90
8408;DHT22;4241;48.452;9.216;2022-11-20T01:38:51;5.50;99.90
8408;DHT22;4241;48.452;9.216;2022-11-20T01:41:21;5.40;99.90
8408;DHT22;4241;48.452;9.216;2022-11-20T01:46:35;5.50;99.90
8408;DHT22;4241;48.452;9.216;2022-11-20T01:49:05;5.50;99.90
8408;DHT22;4241;48.452;9.216;2022-11-20T01:51:40;5.40;99.90
8408;DHT22;4241;48.452;9.216;2022-11-20T01:54:11;5.50;99.90
8408;DHT22;4241;48.452;9.216;2022-11-20T01:56:41;5.40;99.90
8408;DHT22;4241;48.452;9.216;2022-11-20T01:59:09;5.50;99.90
8408;DHT22;4241;48.452;9.216;2022-11-20T02:01:37;5.40;99.90
8408;DHT22;4241;48.452;9.216;2022-11-20T02:04:05;5.50;99.90
8408;DHT22;4241;48.452;9.216;2022-11-20T02:06:35;5.60;99.90
8408;DHT22;4241;48.452;9.216;2022-11-20T02:09:05;5.50;99.90
8408;DHT22;4241;48.452;9.216;2022-11-20T02:11:32;5.60;99.90
8408;DHT22;4241;48.452;9.216;2022-11-20T02:14:00;5.60;99.90
8408;DHT22;4241;48.452;9.216;2022-11-20T02:16:30;5.60;99.90
8408;DHT22;4241;48.452;9.216;2022-11-20T02:18:59;5.70;99.90
8408;DHT22;4241;48.452;9.216;2022-11-20T02:21:33;5.60;99.90
8408;DHT22;4241;48.452;9.216;2022-11-20T02:24:08;5.60;99.90
8408;DHT22;4241;48.452;9.216;2022-11-20T02:26:42;5.70;99.90
8408;DHT22;4241;48.452;9.216;2022-11-20T02:31:40;5.70;99.90
8408;DHT22;4241;48.452;9.216;2022-11-20T02:34:08;5.80;99.90
8408;DHT22;4241;48.452;9.216;2022-11-20T02:36:36;5.80;99.90
8408;DHT22;4241;48.452;9.216;2022-11-20T02:39:07;5.80;99.90
8408;DHT22;4241;48.452;9.216;2022-11-20T02:41:37;5.80;99.90
8408;DHT22;4241;48.452;9.216;2022-11-20T02:44:05;5.80;99.90
8408;DHT22;4241;48.452;9.216;2022-11-20T02:46:32;5.90;99.90
8408;DHT22;4241;48.452;9.216;2022-11-20T02:49:00;5.90;99.90
8408;DHT22;4241;48.452;9.216;2022-11-20T02:51:27;5.90;99.90
8408;DHT22;4241;48.452;9.216;2022-11-20T02:56:22;5.90;99.90
8408;DHT22;4241;48.452;9.216;2022-11-20T02:58:49;6.00;99.90
8408;DHT22;4241;48.452;9.216;2022-11-20T03:08:37;5.90;99.90
8408;DHT22;4241;48.452;9.216;2022-11-20T03:11:06;5.90;99.90
8408;DHT22;4241;48.452;9.216;2022-11-20T03:13:35;5.90;99.90
8408;DHT22;4241;48.452;9.216;2022-11-20T03:16:07;5.90;99.90
8408;DHT22;4241;48.452;9.216;2022-11-20T03:18:34;5.90;99.90
8408;DHT22;4241;48.452;9.216;2022-11-20T03:23:29;5.90;99.90
8408;DHT22;4241;48.452;9.216;2022-11-20T03:26:06;5.80;99.90
8408;DHT22;4241;48.452;9.216;2022-11-20T03:28:35;5.80;99.90
8408;DHT22;4241;48.452;9.216;2022-11-20T03:31:05;5.70;99.90
8408;DHT22;4241;48.452;9.216;2022-11-20T03:33:32;5.80;99.90
8408;DHT22;4241;48.452;9.216;2022-11-20T03:36:01;5.70;99.90
8408;DHT22;4241;48.452;9.216;2022-11-20T03:38:28;5.60;99.90
8408;DHT22;4241;48.452;9.216;2022-11-20T03:40:58;5.60;99.90
8408;DHT22;4241;48.452;9.216;2022-11-20T03:45:54;5.50;99.90
8408;DHT22;4241;48.452;9.216;2022-11-20T03:48:26;5.70;99.90
8408;DHT22;4241;48.452;9.216;2022-11-20T03:50:53;5.50;99.90
8408;DHT22;4241;48.452;9.216;2022-11-20T03:55:59;5.50;99.90
8408;DHT22;4241;48.452;9.216;2022-11-20T04:00:54;5.40;99.90
8408;DHT22;4241;48.452;9.216;2022-11-20T04:05:48;5.40;99.90
8408;DHT22;4241;48.452;9.216;2022-11-20T04:08:15;5.30;99.90
8408;DHT22;4241;48.452;9.216;2022-11-20T04:13:09;5.50;99.90
8408;DHT22;4241;48.452;9.216;2022-11-20T04:15:36;5.50;99.90
8408;DHT22;4241;48.452;9.216;2022-11-20T04:18:04;5.60;99.90
8408;DHT22;4241;48.452;9.216;2022-11-20T04:20:31;5.60;99.90
8408;DHT22;4241;48.452;9.216;2022-11-20T04:22:57;5.60;99.90
8408;DHT22;4241;48.452;9.216;2022-11-20T04:25:24;5.60;99.90
8408;DHT22;4241;48.452;9.216;2022-11-20T04:30:18;5.90;99.90
8408;DHT22;4241;48.452;9.216;2022-11-20T04:35:14;5.80;99.90
8408;DHT22;4241;48.452;9.216;2022-11-20T04:37:40;5.90;99.90
8408;DHT22;4241;48.452;9.216;2022-11-20T04:40:08;5.90;99.90
8408;DHT22;4241;48.452;9.216;2022-11-20T04:42:35;6.00;99.90
8408;DHT22;4241;48.452;9.216;2022-11-20T04:52:24;6.00;99.90
8408;DHT22;4241;48.452;9.216;2022-11-20T04:54:51;6.00;99.90
8408;DHT22;4241;48.452;9.216;2022-11-20T05:02:13;5.90;99.90
8408;DHT22;4241;48.452;9.216;2022-11-20T05:04:40;6.00;99.90
8408;DHT22;4241;48.452;9.216;2022-11-20T05:07:06;6.00;99.90
8408;DHT22;4241;48.452;9.216;2022-11-20T05:09:35;6.00;99.90
8408;DHT22;4241;48.452;9.216;2022-11-20T05:16:56;6.10;99.90
8408;DHT22;4241;48.452;9.216;2022-11-20T05:21:49;5.90;99.90
8408;DHT22;4241;48.452;9.216;2022-11-20T05:24:17;5.90;99.90
8408;DHT22;4241;48.452;9.216;2022-11-20T05:26:45;5.90;99.90
8408;DHT22;4241;48.452;9.216;2022-11-20T05:29:12;6.00;99.90
8408;DHT22;4241;48.452;9.216;2022-11-20T05:31:40;5.90;99.90
8408;DHT22;4241;48.452;9.216;2022-11-20T05:34:07;5.90;99.90
8408;DHT22;4241;48.452;9.216;2022-11-20T05:36:34;6.00;99.90
8408;DHT22;4241;48.452;9.216;2022-11-20T05:39:01;6.00;99.90
8408;DHT22;4241;48.452;9.216;2022-11-20T05:41:28;6.90;99.90
8408;DHT22;4241;48.452;9.216;2022-11-20T05:43:57;6.00;99.90
8408;DHT22;4241;48.452;9.216;2022-11-20T05:46:25;5.90;99.90
8408;DHT22;4241;48.452;9.216;2022-11-20T05:48:52;6.00;99.90
8408;DHT22;4241;48.452;9.216;2022-11-20T05:51:19;5.90;99.90
8408;DHT22;4241;48.452;9.216;2022-11-20T05:53:46;6.00;99.90
8408;DHT22;4241;48.452;9.216;2022-11-20T05:56:14;6.00;99.90
8408;DHT22;4241;48.452;9.216;2022-11-20T05:58:42;5.90;99.90
8408;DHT22;4241;48.452;9.216;2022-11-20T06:01:13;5.90;99.90
8408;DHT22;4241;48.452;9.216;2022-11-20T06:03:41;5.90;99.90
8408;DHT22;4241;48.452;9.216;2022-11-20T06:08:38;5.90;99.90
8408;DHT22;4241;48.452;9.216;2022-11-20T06:11:06;5.70;99.90
8408;DHT22;4241;48.452;9.216;2022-11-20T06:13:33;5.70;99.90
8408;DHT22;4241;48.452;9.216;2022-11-20T06:16:00;5.70;99.90
8408;DHT22;4241;48.452;9.216;2022-11-20T06:18:29;5.60;99.90
8408;DHT22;4241;48.452;9.216;2022-11-20T06:21:00;5.60;99.90
8408;DHT22;4241;48.452;9.216;2022-11-20T06:23:28;5.70;99.90
8408;DHT22;4241;48.452;9.216;2022-11-20T06:25:55;5.70;99.90
8408;DHT22;4241;48.452;9.216;2022-11-20T06:28:22;5.80;99.90
8408;DHT22;4241;48.452;9.216;2022-11-20T06:33:16;5.70;99.90
8408;DHT22;4241;48.452;9.216;2022-11-20T06:35:44;5.80;99.90
8408;DHT22;4241;48.452;9.216;2022-11-20T06:38:11;5.70;99.90
8408;DHT22;4241;48.452;9.216;2022-11-20T06:40:40;5.60;99.90
8408;DHT22;4241;48.452;9.216;2022-11-20T06:48:01;5.80;99.90
8408;DHT22;4241;48.452;9.216;2022-11-20T06:52:56;5.80;99.90
8408;DHT22;4241;48.452;9.216;2022-11-20T06:57:50;5.80;99.90
8408;DHT22;4241;48.452;9.216;2022-11-20T07:00:17;5.70;99.90
8408;DHT22;4241;48.452;9.216;2022-11-20T07:10:08;6.10;99.90
8408;DHT22;4241;48.452;9.216;2022-11-20T07:12:35;5.80;99.90
8408;DHT22;4241;48.452;9.216;2022-11-20T07:17:29;6.00;99.90
8408;DHT22;4241;48.452;9.216;2022-11-20T07:19:56;6.00;99.90
8408;DHT22;4241;48.452;9.216;2022-11-20T07:22:23;6.00;99.90
8408;DHT22;4241;48.452;9.216;2022-11-20T07:24:49;6.00;99.90
8408;DHT22;4241;48.452;9.216;2022-11-20T07:27:18;6.00;99.90
8408;DHT22;4241;48.452;9.216;2022-11-20T07:34:38;5.80;99.90
8408;DHT22;4241;48.452;9.216;2022-11-20T07:39:32;6.10;99.90
8408;DHT22;4241;48.452;9.216;2022-11-20T07:41:59;6.30;99.90
8408;DHT22;4241;48.452;9.216;2022-11-20T07:44:27;6.20;99.90
8408;DHT22;4241;48.452;9.216;2022-11-20T07:51:50;6.20;99.90
8408;DHT22;4241;48.452;9.216;2022-11-20T07:54:17;6.20;99.90
8408;DHT22;4241;48.452;9.216;2022-11-20T07:56:43;6.20;99.90
8408;DHT22;4241;48.452;9.216;2022-11-20T08:01:40;6.40;99.90
8408;DHT22;4241;48.452;9.216;2022-11-20T08:09:01;6.50;99.90
8408;DHT22;4241;48.452;9.216;2022-11-20T08:11:28;6.60;99.90
8408;DHT22;4241;48.452;9.216;2022-11-20T08:14:12;6.70;99.90
8408;DHT22;4241;48.452;9.216;2022-11-20T08:16:42;6.70;99.90
8408;DHT22;4241;48.452;9.216;2022-11-20T08:19:09;6.60;99.90
8408;DHT22;4241;48.452;9.216;2022-11-20T08:21:36;6.70;99.90
8408;DHT22;4241;48.452;9.216;2022-11-20T08:24:04;6.70;99.90
8408;DHT22;4241;48.452;9.216;2022-11-20T08:26:31;6.70;99.90
8408;DHT22;4241;48.452;9.216;2022-11-20T08:28:58;6.80;99.90
8408;DHT22;4241;48.452;9.216;2022-11-20T08:31:26;6.80;99.90
8408;DHT22;4241;48.452;9.216;2022-11-20T08:33:54;6.80;99.90
8408;DHT22;4241;48.452;9.216;2022-11-20T08:36:22;6.80;99.90
8408;DHT22;4241;48.452;9.216;2022-11-20T08:38:50;6.70;99.90
8408;DHT22;4241;48.452;9.216;2022-11-20T08:43:53;6.80;99.90
8408;DHT22;4241;48.452;9.216;2022-11-20T08:51:16;6.80;99.90
8408;DHT22;4241;48.452;9.216;2022-11-20T08:53:43;6.80;99.90
8408;DHT22;4241;48.452;9.216;2022-11-20T08:56:10;7.00;99.90
8408;DHT22;4241;48.452;9.216;2022-11-20T08:58:37;6.90;99.90
8408;DHT22;4241;48.452;9.216;2022-11-20T09:01:04;7.00;99.90
8408;DHT22;4241;48.452;9.216;2022-11-20T09:03:31;7.10;99.90
8408;DHT22;4241;48.452;9.216;2022-11-20T09:05:58;7.10;99.90
8408;DHT22;4241;48.452;9.216;2022-11-20T09:08:27;7.10;99.90
8408;DHT22;4241;48.452;9.216;2022-11-20T09:10:55;7.10;99.90
8408;DHT22;4241;48.452;9.216;2022-11-20T09:13:23;7.20;99.90
8408;DHT22;4241;48.452;9.216;2022-11-20T09:15:53;7.10;99.90
8408;DHT22;4241;48.452;9.216;2022-11-20T09:18:20;7.10;99.90
8408;DHT22;4241;48.452;9.216;2022-11-20T09:25:44;7.10;99.90
8408;DHT22;4241;48.452;9.216;2022-11-20T09:28:11;7.00;99.90
8408;DHT22;4241;48.452;9.216;2022-11-20T09:33:05;7.00;99.90
8408;DHT22;4241;48.452;9.216;2022-11-20T09:35:32;7.00;99.90
8408;DHT22;4241;48.452;9.216;2022-11-20T09:38:04;7.00;99.90
8408;DHT22;4241;48.452;9.216;2022-11-20T09:40:31;6.80;99.90
8408;DHT22;4241;48.452;9.216;2022-11-20T09:43:02;6.90;99.90
8408;DHT22;4241;48.452;9.216;2022-11-20T09:45:47;6.90;99.90
8408;DHT22;4241;48.452;9.216;2022-11-20T09:48:49;6.90;99.90
8408;DHT22;4241;48.452;9.216;2022-11-20T09:51:28;6.80;99.90
8408;DHT22;4241;48.452;9.216;2022-11-20T09:54:10;6.80;99.90
8408;DHT22;4241;48.452;9.216;2022-11-20T09:56:41;6.90;99.90
8408;DHT22;4241;48.452;9.216;2022-11-20T09:59:18;6.90;99.90
8408;DHT22;4241;48.452;9.216;2022-11-20T10:01:47;6.90;99.90
8408;DHT22;4241;48.452;9.216;2022-11-20T10:04:16;7.00;99.90
8408;DHT22;4241;48.452;9.216;2022-11-20T10:06:50;7.00;99.90
8408;DHT22;4241;48.452;9.216;2022-11-20T10:09:22;7.00;99.90
8408;DHT22;4241;48.452;9.216;2022-11-20T10:12:12;7.00;99.90
8408;DHT22;4241;48.452;9.216;2022-11-20T10:14:55;7.00;99.90
8408;DHT22;4241;48.452;9.216;2022-11-20T10:17:33;7.00;99.90
8408;DHT22;4241;48.452;9.216;2022-11-20T10:20:16;7.00;99.90
8408;DHT22;4241;48.452;9.216;2022-11-20T10:22:58;7.00;99.90
8408;DHT22;4241;48.452;9.216;2022-11-20T10:25:37;6.90;99.90
8408;DHT22;4241;48.452;9.216;2022-11-20T10:28:24;7.00;99.90
8408;DHT22;4241;48.452;9.216;2022-11-20T10:31:01;6.90;99.90
8408;DHT22;4241;48.452;9.216;2022-11-20T10:33:32;6.90;99.90
8408;DHT22;4241;48.452;9.216;2022-11-20T10:36:07;6.80;99.90
8408;DHT22;4241;48.452;9.216;2022-11-20T10:38:38;6.80;99.90
8408;DHT22;4241;48.452;9.216;2022-11-20T10:41:06;6.90;99.90
8408;DHT22;4241;48.452;9.216;2022-11-20T10:43:56;7.00;99.90
8408;DHT22;4241;48.452;9.216;2022-11-20T10:46:32;6.90;99.90
8408;DHT22;4241;48.452;9.216;2022-11-20T10:49:09;6.90;99.90
8408;DHT22;4241;48.452;9.216;2022-11-20T10:51:45;6.80;99.90
8408;DHT22;4241;48.452;9.216;2022-11-20T10:54:20;6.90;99.90
8408;DHT22;4241;48.452;9.216;2022-11-20T10:56:51;7.00;99.90
8408;DHT22;4241;48.452;9.216;2022-11-20T11:02:19;7.00;99.90
8408;DHT22;4241;48.452;9.216;2022-11-20T11:04:48;6.90;99.90
8408;DHT22;4241;48.452;9.216;2022-11-20T11:07:19;6.90;99.90
8408;DHT22;4241;48.452;9.216;2022-11-20T11:09:49;7.10;99.90
8408;DHT22;4241;48.452;9.216;2022-11-20T11:12:16;6.90;99.90
8408;DHT22;4241;48.452;9.216;2022-11-20T11:14:48;6.80;99.90
8408;DHT22;4241;48.452;9.216;2022-11-20T11:17:28;6.80;99.90
8408;DHT22;4241;48.452;9.216;2022-11-20T11:20:05;6.70;99.90
8408;DHT22;4241;48.452;9.216;2022-11-20T11:22:34;6.70;99.90
8408;DHT22;4241;48.452;9.216;2022-11-20T11:25:02;6.80;99.90
8408;DHT22;4241;48.452;9.216;2022-11-20T11:27:29;6.70;99.90
8408;DHT22;4241;48.452;9.216;2022-11-20T11:30:11;6.70;99.90
8408;DHT22;4241;48.452;9.216;2022-11-20T11:32:40;6.70;99.90
8408;DHT22;4241;48.452;9.216;2022-11-20T11:35:21;6.70;99.90
8408;DHT22;4241;48.452;9.216;2022-11-20T11:40:17;6.90;99.90
8408;DHT22;4241;48.452;9.216;2022-11-20T11:42:54;6.90;99.90
8408;DHT22;4241;48.452;9.216;2022-11-20T11:47:51;6.90;99.90
8408;DHT22;4241;48.452;9.216;2022-11-20T11:50:20;6.90;99.90
8408;DHT22;4241;48.452;9.216;2022-11-20T11:52:54;6.70;99.90
8408;DHT22;4241;48.452;9.216;2022-11-20T11:55:29;6.60;99.90
8408;DHT22;4241;48.452;9.216;2022-11-20T11:58:04;6.70;99.90
8408;DHT22;4241;48.452;9.216;2022-11-20T12:00:34;6.70;99.90
8408;DHT22;4241;48.452;9.216;2022-11-20T12:03:10;6.70;99.90
8408;DHT22;4241;48.452;9.216;2022-11-20T12:05:42;7.00;99.90
8408;DHT22;4241;48.452;9.216;2022-11-20T12:08:15;7.20;99.90
8408;DHT22;4241;48.452;9.216;2022-11-20T12:10:46;7.00;99.90
8408;DHT22;4241;48.452;9.216;2022-11-20T12:13:40;7.00;99.90
8408;DHT22;4241;48.452;9.216;2022-11-20T12:16:13;7.10;99.90
8408;DHT22;4241;48.452;9.216;2022-11-20T12:18:42;7.10;99.90
8408;DHT22;4241;48.452;9.216;2022-11-20T12:21:18;7.10;99.90
8408;DHT22;4241;48.452;9.216;2022-11-20T12:24:01;7.10;99.90
8408;DHT22;4241;48.452;9.216;2022-11-20T12:26:39;7.20;99.90
8408;DHT22;4241;48.452;9.216;2022-11-20T12:29:14;7.30;99.90
8408;DHT22;4241;48.452;9.216;2022-11-20T12:31:57;7.20;99.90
8408;DHT22;4241;48.452;9.216;2022-11-20T12:34:46;7.30;99.90
8408;DHT22;4241;48.452;9.216;2022-11-20T12:37:24;7.30;99.90
8408;DHT22;4241;48.452;9.216;2022-11-20T12:39:57;7.30;99.90
8408;DHT22;4241;48.452;9.216;2022-11-20T12:42:46;7.40;99.90
8408;DHT22;4241;48.452;9.216;2022-11-20T12:45:51;7.20;99.90
8408;DHT22;4241;48.452;9.216;2022-11-20T12:48:50;7.30;99.90
8408;DHT22;4241;48.452;9.216;2022-11-20T12:51:38;7.20;99.90
8408;DHT22;4241;48.452;9.216;2022-11-20T12:54:36;7.40;99.90
8408;DHT22;4241;48.452;9.216;2022-11-20T12:57:12;7.50;99.90
8408;DHT22;4241;48.452;9.216;2022-11-20T13:00:01;7.60;99.90
8408;DHT22;4241;48.452;9.216;2022-11-20T13:02:36;7.30;99.90
8408;DHT22;4241;48.452;9.216;2022-11-20T13:05:19;7.40;99.90
8408;DHT22;4241;48.452;9.216;2022-11-20T13:07:51;7.40;99.90
8408;DHT22;4241;48.452;9.216;2022-11-20T13:10:26;7.40;99.90
8408;DHT22;4241;48.452;9.216;2022-11-20T13:12:58;7.30;99.90
8408;DHT22;4241;48.452;9.216;2022-11-20T13:15:36;7.60;99.90
8408;DHT22;4241;48.452;9.216;2022-11-20T13:18:08;7.70;99.90
8408;DHT22;4241;48.452;9.216;2022-11-20T13:20:36;7.90;99.90
8408;DHT22;4241;48.452;9.216;2022-11-20T13:23:09;7.80;99.90
8408;DHT22;4241;48.452;9.216;2022-11-20T13:25:37;7.90;99.90
8408;DHT22;4241;48.452;9.216;2022-11-20T13:28:28;8.00;99.90
8408;DHT22;4241;48.452;9.216;2022-11-20T13:30:56;7.90;99.90
8408;DHT22;4241;48.452;9.216;2022-11-20T13:33:28;7.90;99.90
8408;DHT22;4241;48.452;9.216;2022-11-20T13:35:58;7.90;99.90
8408;DHT22;4241;48.452;9.216;2022-11-20T13:38:26;7.90;99.90
8408;DHT22;4241;48.452;9.216;2022-11-20T13:40:55;7.80;99.90
8408;DHT22;4241;48.452;9.216;2022-11-20T13:43:28;7.80;99.90
8408;DHT22;4241;48.452;9.216;2022-11-20T13:45:57;7.80;99.90
8408;DHT22;4241;48.452;9.216;2022-11-20T13:48:26;7.70;99.90
8408;DHT22;4241;48.452;9.216;2022-11-20T13:51:11;7.60;99.90
8408;DHT22;4241;48.452;9.216;2022-11-20T13:53:53;7.40;99.90
8408;DHT22;4241;48.452;9.216;2022-11-20T13:56:28;7.50;99.90
8408;DHT22;4241;48.452;9.216;2022-11-20T13:59:03;7.40;99.90
8408;DHT22;4241;48.452;9.216;2022-11-20T14:01:32;7.30;99.90
8408;DHT22;4241;48.452;9.216;2022-11-20T14:04:05;7.30;99.90
8408;DHT22;4241;48.452;9.216;2022-11-20T14:06:38;7.30;99.90
8408;DHT22;4241;48.452;9.216;2022-11-20T14:09:10;7.30;99.90
8408;DHT22;4241;48.452;9.216;2022-11-20T14:11:46;7.20;99.90
8408;DHT22;4241;48.452;9.216;2022-11-20T14:14:15;7.30;99.90
8408;DHT22;4241;48.452;9.216;2022-11-20T14:16:42;7.20;99.90
8408;DHT22;4241;48.452;9.216;2022-11-20T14:19:30;7.20;99.90
8408;DHT22;4241;48.452;9.216;2022-11-20T14:22:10;7.20;99.90
8408;DHT22;4241;48.452;9.216;2022-11-20T14:24:39;7.00;99.90
8408;DHT22;4241;48.452;9.216;2022-11-20T14:27:14;7.00;99.90
8408;DHT22;4241;48.452;9.216;2022-11-20T14:29:42;7.10;99.90
8408;DHT22;4241;48.452;9.216;2022-11-20T14:32:10;7.00;99.90
8408;DHT22;4241;48.452;9.216;2022-11-20T14:34:39;7.10;99.90
8408;DHT22;4241;48.452;9.216;2022-11-20T14:37:11;7.10;99.90
8408;DHT22;4241;48.452;9.216;2022-11-20T14:39:47;7.00;99.90
8408;DHT22;4241;48.452;9.216;2022-11-20T14:42:16;7.10;99.90
8408;DHT22;4241;48.452;9.216;2022-11-20T14:44:43;7.10;99.90
8408;DHT22;4241;48.452;9.216;2022-11-20T14:47:13;7.00;99.90
8408;DHT22;4241;48.452;9.216;2022-11-20T14:49:40;7.00;99.90
8408;DHT22;4241;48.452;9.216;2022-11-20T14:52:14;6.80;99.90
8408;DHT22;4241;48.452;9.216;2022-11-20T14:54:47;6.80;99.90
8408;DHT22;4241;48.452;9.216;2022-11-20T14:57:23;6.70;99.90
8408;DHT22;4241;48.452;9.216;2022-11-20T15:02:18;6.80;99.90
8408;DHT22;4241;48.452;9.216;2022-11-20T15:04:46;6.80;99.90
8408;DHT22;4241;48.452;9.216;2022-11-20T15:07:24;7.00;99.90
8408;DHT22;4241;48.452;9.216;2022-11-20T15:10:01;6.90;99.90
8408;DHT22;4241;48.452;9.216;2022-11-20T15:12:29;6.80;99.90
8408;DHT22;4241;48.452;9.216;2022-11-20T15:19:52;7.00;99.90
8408;DHT22;4241;48.452;9.216;2022-11-20T15:22:19;7.10;99.90
8408;DHT22;4241;48.452;9.216;2022-11-20T15:27:15;7.00;99.90
8408;DHT22;4241;48.452;9.216;2022-11-20T15:29:42;7.00;99.90
8408;DHT22;4241;48.452;9.216;2022-11-20T15:34:36;6.90;99.90
8408;DHT22;4241;48.452;9.216;2022-11-20T15:39:30;6.80;99.90
8408;DHT22;4241;48.452;9.216;2022-11-20T15:41:56;6.80;99.90
8408;DHT22;4241;48.452;9.216;2022-11-20T15:44:24;6.80;99.90
8408;DHT22;4241;48.452;9.216;2022-11-20T15:46:51;6.80;99.90
8408;DHT22;4241;48.452;9.216;2022-11-20T15:49:18;6.80;99.90
8408;DHT22;4241;48.452;9.216;2022-11-20T15:51:48;6.70;99.90
8408;DHT22;4241;48.452;9.216;2022-11-20T15:54:17;6.70;99.90
8408;DHT22;4241;48.452;9.216;2022-11-20T15:56:45;6.50;99.90
8408;DHT22;4241;48.452;9.216;2022-11-20T15:59:12;6.50;99.90
8408;DHT22;4241;48.452;9.216;2022-11-20T16:01:41;6.50;99.90
8408;DHT22;4241;48.452;9.216;2022-11-20T16:04:10;6.40;99.90
8408;DHT22;4241;48.452;9.216;2022-11-20T16:06:37;6.30;99.90
8408;DHT22;4241;48.452;9.216;2022-11-20T16:09:04;6.30;99.90
8408;DHT22;4241;48.452;9.216;2022-11-20T16:13:58;6.10;99.90
8408;DHT22;4241;48.452;9.216;2022-11-20T16:16:44;6.30;99.90
8408;DHT22;4241;48.452;9.216;2022-11-20T16:19:11;6.30;99.90
8408;DHT22;4241;48.452;9.216;2022-11-20T16:21:39;6.30;99.90
8408;DHT22;4241;48.452;9.216;2022-11-20T16:24:08;6.30;99.90
8408;DHT22;4241;48.452;9.216;2022-11-20T16:26:36;6.30;99.90
8408;DHT22;4241;48.452;9.216;2022-11-20T16:29:04;6.30;99.90
8408;DHT22;4241;48.452;9.216;2022-11-20T16:31:32;6.40;99.90
8408;DHT22;4241;48.452;9.216;2022-11-20T16:34:02;5.10;99.90
8408;DHT22;4241;48.452;9.216;2022-11-20T16:36:29;6.40;99.90
8408;DHT22;4241;48.452;9.216;2022-11-20T16:38:58;6.30;99.90
8408;DHT22;4241;48.452;9.216;2022-11-20T16:41:27;6.30;99.90
8408;DHT22;4241;48.452;9.216;2022-11-20T16:43:55;6.40;99.90
8408;DHT22;4241;48.452;9.216;2022-11-20T16:46:24;6.40;99.90
8408;DHT22;4241;48.452;9.216;2022-11-20T16:48:56;6.40;99.90
8408;DHT22;4241;48.452;9.216;2022-11-20T16:51:25;6.40;99.90
8408;DHT22;4241;48.452;9.216;2022-11-20T16:53:52;6.50;99.90
8408;DHT22;4241;48.452;9.216;2022-11-20T16:56:21;6.50;99.90
8408;DHT22;4241;48.452;9.216;2022-11-20T16:58:50;6.50;99.90
8408;DHT22;4241;48.452;9.216;2022-11-20T17:01:19;6.50;99.90
8408;DHT22;4241;48.452;9.216;2022-11-20T17:03:52;6.50;99.90
8408;DHT22;4241;48.452;9.216;2022-11-20T17:06:24;6.50;99.90
8408;DHT22;4241;48.452;9.216;2022-11-20T17:08:53;6.60;99.90
8408;DHT22;4241;48.452;9.216;2022-11-20T17:11:20;6.60;99.90
8408;DHT22;4241;48.452;9.216;2022-11-20T17:13:47;6.60;99.90
8408;DHT22;4241;48.452;9.216;2022-11-20T17:16:15;6.70;99.90
8408;DHT22;4241;48.452;9.216;2022-11-20T17:18:43;6.70;99.90
8408;DHT22;4241;48.452;9.216;2022-11-20T17:21:10;6.80;99.90
8408;DHT22;4241;48.452;9.216;2022-11-20T17:23:40;6.70;99.90
8408;DHT22;4241;48.452;9.216;2022-11-20T17:26:09;6.60;99.90
8408;DHT22;4241;48.452;9.216;2022-11-20T17:28:37;6.70;99.90
8408;DHT22;4241;48.452;9.216;2022-11-20T17:31:06;6.80;99.90
8408;DHT22;4241;48.452;9.216;2022-11-20T17:33:34;6.70;99.90
8408;DHT22;4241;48.452;9.216;2022-11-20T17:38:28;6.80;99.90
8408;DHT22;4241;48.452;9.216;2022-11-20T17:41:02;6.70;99.90
8408;DHT22;4241;48.452;9.216;2022-11-20T17:43:30;6.70;99.90
8408;DHT22;4241;48.452;9.216;2022-11-20T17:48:25;6.80;99.90
8408;DHT22;4241;48.452;9.216;2022-11-20T17:50:58;6.80;99.90
8408;DHT22;4241;48.452;9.216;2022-11-20T17:53:25;6.80;99.90
8408;DHT22;4241;48.452;9.216;2022-11-20T17:55:55;6.80;99.90
8408;DHT22;4241;48.452;9.216;2022-11-20T17:58:41;6.80;99.90
8408;DHT22;4241;48.452;9.216;2022-11-20T18:01:09;6.80;99.90
8408;DHT22;4241;48.452;9.216;2022-11-20T18:03:36;6.80;99.90
8408;DHT22;4241;48.452;9.216;2022-11-20T18:06:10;6.80;99.90
8408;DHT22;4241;48.452;9.216;2022-11-20T18:08:37;6.80;99.90
8408;DHT22;4241;48.452;9.216;2022-11-20T18:11:14;6.80;99.90
8408;DHT22;4241;48.452;9.216;2022-11-20T18:13:52;6.80;99.90
8408;DHT22;4241;48.452;9.216;2022-11-20T18:16:39;6.90;99.90
8408;DHT22;4241;48.452;9.216;2022-11-20T18:19:07;6.90;99.90
8408;DHT22;4241;48.452;9.216;2022-11-20T18:24:02;6.90;99.90
8408;DHT22;4241;48.452;9.216;2022-11-20T18:28:57;6.80;99.90
8408;DHT22;4241;48.452;9.216;2022-11-20T18:31:24;6.90;99.90
8408;DHT22;4241;48.452;9.216;2022-11-20T18:33:51;6.90;99.90
8408;DHT22;4241;48.452;9.216;2022-11-20T18:36:21;6.90;99.90
8408;DHT22;4241;48.452;9.216;2022-11-20T18:38:49;6.80;99.90
8408;DHT22;4241;48.452;9.216;2022-11-20T18:41:19;6.80;99.90
8408;DHT22;4241;48.452;9.216;2022-11-20T18:44:06;6.80;99.90
8408;DHT22;4241;48.452;9.216;2022-11-20T18:46:54;6.70;99.90
8408;DHT22;4241;48.452;9.216;2022-11-20T18:49:21;6.80;99.90
8408;DHT22;4241;48.452;9.216;2022-11-20T18:51:48;6.70;99.90
8408;DHT22;4241;48.452;9.216;2022-11-20T18:54:15;6.70;99.90
8408;DHT22;4241;48.452;9.216;2022-11-20T18:59:12;6.80;99.90
8408;DHT22;4241;48.452;9.216;2022-11-20T19:01:39;6.80;99.90
8408;DHT22;4241;48.452;9.216;2022-11-20T19:04:07;6.70;99.90
8408;DHT22;4241;48.452;9.216;2022-11-20T19:06:35;6.40;99.90
8408;DHT22;4241;48.452;9.216;2022-11-20T19:09:04;6.50;99.90
8408;DHT22;4241;48.452;9.216;2022-11-20T19:11:33;6.50;99.90
8408;DHT22;4241;48.452;9.216;2022-11-20T19:16:29;6.40;99.90
8408;DHT22;4241;48.452;9.216;2022-11-20T19:18:58;6.40;99.90
8408;DHT22;4241;48.452;9.216;2022-11-20T19:21:25;6.40;99.90
8408;DHT22;4241;48.452;9.216;2022-11-20T19:23:53;6.30;99.90
8408;DHT22;4241;48.452;9.216;2022-11-20T19:26:21;6.20;99.90
8408;DHT22;4241;48.452;9.216;2022-11-20T19:28:48;6.10;99.90
8408;DHT22;4241;48.452;9.216;2022-11-20T19:31:17;6.10;99.90
8408;DHT22;4241;48.452;9.216;2022-11-20T19:33:46;6.00;99.90